PHOENIX SKY HARBOR INTL

KPHX (PHX)
Phoenix, Arizona
Towered

Vatsim Metar:
KPHX 240951Z 09004KT 10SM SCT220 BKN250 19/06 A2980 RMK AO2 SLP075 T01890061